メインページ
METAR-TAF:

METAR-TAF

空港 :

カラカス, ベネズエラ

シモン・ボリバル国際空港

緯度: 10-36N, 経度: 066-59W, 海抜: 43m

現時点の気象観測

当レポートは25分前の17:00(UTC)に作成
西/北西の風 6kt
気温 32°C
湿度 67%
気圧 1011 hPa
視程10km以上
高度1600ftの雲は散在している

METAR: SVMI 231700Z 29006KT 9999 SCT016 32/25 Q1011

時間: 13:25 (17:25 UTC)

予報

当レポートは7時間25分前の10:00(UTC)に作成
予報は23日の 12時(UTC)から 24日の 12時(UTC)まで有効
の風 kt
視程10km以上
高度1600ftの雲はほとんどない
23日の 16時(UTC)から 23日の 20時(UTC)まで徐々に
北東の風 10kt
高度1600ftの雲は散在している

TAF: SVMI 231000Z 2312/2412 00000KT 9999 FEW016 TX33/18Z TN24/08Z BECMG 2316/2320 05010KT SCT016

4,000以上の空港の気象観測と天気予報(METAR報とTAF報)

利用可能な観測所は地図上に黄色い丸と赤い丸で示す。

丸の上にカーソルを重ねると観測所名を参照できる。

次にクリックすると気象観測と天気予報を参照できる。

マップの切り替え:黒色「×」印の緑ボタンをクリックして拡大、「-」印の緑ボタンをクリックして縮小、緑色の三角印をクリックして隣りの地図に切り替え


METAR-TAF: